Time;durP1;ratioP1;P1;durP2;ratioP2;P2;SDS_P1;SDS_P2;PMS_P1;PMS_P2;Temp;Humidity;BMP_temperature;BMP_pressure;BME280_temperature;BME280_humidity;BME280_pressure;Samples;Min_cycle;Max_cycle;Signal;HPM_P1;HPM_P2
2021/12/19 00:09:14;;;;;;;19.40;14.87;;;4.80;95.50;;;;;;6250358;28;20541;-61
2021/12/19 00:12:17;;;;;;;19.03;14.67;;;4.80;95.40;;;;;;6296557;28;20473;-63
2021/12/19 00:15:21;;;;;;;15.77;14.07;;;4.80;95.50;;;;;;6296515;28;20619;-63
2021/12/19 00:18:24;;;;;;;19.17;15.53;;;4.80;95.50;;;;;;6296188;28;20519;-62
2021/12/19 00:21:30;;;;;;;16.30;14.33;;;4.80;95.50;;;;;;6295789;28;20461;-63
2021/12/19 00:24:33;;;;;;;17.27;14.80;;;4.80;95.40;;;;;;6295701;28;20493;-61
2021/12/19 00:27:36;;;;;;;19.57;15.47;;;4.80;95.40;;;;;;6295664;28;20469;-62
2021/12/19 00:30:39;;;;;;;16.90;13.23;;;4.70;95.40;;;;;;6270188;28;20969;-62
2021/12/19 00:33:43;;;;;;;22.63;16.63;;;4.70;95.50;;;;;;6270303;28;20466;-62
2021/12/19 00:36:47;;;;;;;21.30;15.67;;;4.70;95.50;;;;;;6270575;28;20836;-62
2021/12/19 00:39:50;;;;;;;20.63;16.43;;;4.60;95.70;;;;;;6270209;28;20526;-62
2021/12/19 00:43:03;;;;;;;16.00;14.33;;;4.70;95.90;;;;;;6231397;28;20490;-62
2021/12/19 00:46:08;;;;;;;16.63;13.43;;;4.60;95.90;;;;;;6245242;28;20483;-64
2021/12/19 00:49:12;;;;;;;17.53;15.33;;;4.60;95.90;;;;;;6245326;28;20478;-62
2021/12/19 00:52:16;;;;;;;17.47;14.60;;;4.60;96.00;;;;;;6246073;28;20479;-63
2021/12/19 00:55:21;;;;;;;20.40;15.63;;;4.50;96.00;;;;;;6245923;28;20482;-61
2021/12/19 00:58:25;;;;;;;18.20;15.33;;;4.50;96.10;;;;;;6245482;28;20798;-62
2021/12/19 01:01:28;;;;;;;19.53;15.13;;;4.50;96.20;;;;;;6245843;28;20507;-62
2021/12/19 01:04:31;;;;;;;23.07;15.33;;;4.40;96.30;;;;;;6245045;28;20981;-63
2021/12/19 01:07:36;;;;;;;17.83;15.47;;;4.40;96.50;;;;;;6266562;28;20450;-62
2021/12/19 01:10:41;;;;;;;16.63;14.33;;;4.40;96.60;;;;;;6282495;28;20442;-62
2021/12/19 01:13:44;;;;;;;19.40;14.47;;;4.40;96.70;;;;;;6294738;28;20473;-62
2021/12/19 01:16:47;;;;;;;19.40;15.60;;;4.30;96.70;;;;;;6278450;28;20519;-61
2021/12/19 01:19:51;;;;;;;21.90;15.63;;;4.30;96.90;;;;;;6277134;28;20482;-61
2021/12/19 01:22:56;;;;;;;17.90;14.43;;;4.30;96.80;;;;;;6276914;28;20477;-63
2021/12/19 01:25:59;;;;;;;17.60;13.53;;;4.20;96.90;;;;;;6267045;28;20476;-64
2021/12/19 01:29:02;;;;;;;17.93;15.07;;;4.20;97.10;;;;;;6246542;28;20470;-64
2021/12/19 01:32:06;;;;;;;15.37;13.60;;;4.10;97.20;;;;;;6247767;28;20471;-63
2021/12/19 01:35:11;;;;;;;20.60;17.13;;;4.10;97.40;;;;;;6241325;28;20962;-64
2021/12/19 01:38:16;;;;;;;20.43;15.23;;;4.10;97.50;;;;;;6238915;28;20472;-64
2021/12/19 01:41:19;;;;;;;19.40;17.33;;;4.10;97.60;;;;;;6247011;28;20482;-64
2021/12/19 01:44:24;;;;;;;20.80;17.10;;;4.10;97.60;;;;;;6231941;28;20791;-64
2021/12/19 01:47:28;;;;;;;21.67;16.17;;;4.10;97.60;;;;;;6244254;28;20494;-65
2021/12/19 01:50:33;;;;;;;19.67;16.57;;;3.90;97.40;;;;;;6235579;28;20468;-64
2021/12/19 01:53:37;;;;;;;21.13;14.57;;;3.90;97.90;;;;;;6236698;28;20809;-63
2021/12/19 01:56:41;;;;;;;18.43;14.50;;;3.80;97.60;;;;;;6248344;28;20467;-63
2021/12/19 01:59:44;;;;;;;17.60;14.10;;;3.80;97.60;;;;;;6236575;28;20474;-65
2021/12/19 02:02:48;;;;;;;14.57;13.00;;;3.70;97.80;;;;;;6237670;28;20460;-66
2021/12/19 02:05:51;;;;;;;18.50;13.83;;;3.60;98.00;;;;;;6246966;28;20580;-67
2021/12/19 02:08:59;;;;;;;15.93;12.47;;;3.50;98.20;;;;;;6252932;28;20470;-67
2021/12/19 02:12:03;;;;;;;16.07;12.60;;;3.50;98.40;;;;;;6259019;28;20471;-67
2021/12/19 02:15:08;;;;;;;16.60;12.43;;;3.50;98.50;;;;;;6251851;28;20482;-67
2021/12/19 02:18:14;;;;;;;18.47;12.90;;;3.50;98.50;;;;;;6252147;28;20974;-66
2021/12/19 02:21:19;;;;;;;16.63;13.03;;;3.40;98.50;;;;;;6252601;28;20558;-67
2021/12/19 02:24:22;;;;;;;15.70;12.53;;;3.30;98.50;;;;;;6252175;28;20479;-66
2021/12/19 02:27:28;;;;;;;17.70;14.20;;;3.30;98.60;;;;;;6251906;28;20471;-66
2021/12/19 02:30:32;;;;;;;16.20;12.90;;;3.30;98.80;;;;;;6253796;28;20471;-66
2021/12/19 02:33:39;;;;;;;15.50;12.80;;;3.20;98.90;;;;;;6253326;28;20552;-66
2021/12/19 02:36:53;;;;;;;14.53;12.93;;;3.30;98.90;;;;;;6253539;28;20478;-66
2021/12/19 02:40:24;;;;;;;15.67;11.67;;;3.30;98.90;;;;;;6252123;28;20541;-66
2021/12/19 02:50:12;;;;;;;14.37;11.30;;;3.10;99.10;;;;;;6252480;28;20464;-65
2021/12/19 02:53:22;;;;;;;12.97;11.10;;;3.10;98.90;;;;;;6251569;28;20479;-65
2021/12/19 02:56:25;;;;;;;18.63;12.80;;;3.10;99.10;;;;;;6251881;28;20467;-66
2021/12/19 02:59:28;;;;;;;12.57;10.37;;;3.10;99.10;;;;;;6250841;28;20493;-65
2021/12/19 03:02:31;;;;;;;11.90;10.70;;;3.10;99.10;;;;;;6250990;28;20967;-66
2021/12/19 03:05:34;;;;;;;13.20;11.57;;;3.00;99.10;;;;;;6250717;28;20479;-66
2021/12/19 03:08:43;;;;;;;14.67;11.23;;;3.00;99.30;;;;;;6251332;28;20474;-66
2021/12/19 03:12:05;;;;;;;13.50;11.70;;;3.00;99.40;;;;;;6257440;28;20478;-66
2021/12/19 03:18:31;;;;;;;12.67;11.37;;;3.00;99.40;;;;;;6250923;28;20467;-66
2021/12/19 03:21:34;;;;;;;13.27;11.37;;;3.00;99.10;;;;;;6250866;28;20470;-66
2021/12/19 03:24:42;;;;;;;17.93;11.80;;;3.00;99.40;;;;;;6264096;28;20483;-66
2021/12/19 03:27:46;;;;;;;11.70;10.50;;;3.00;99.40;;;;;;6251367;28;20818;-66
2021/12/19 03:30:49;;;;;;;14.00;11.37;;;3.00;99.20;;;;;;6250577;28;20847;-66
2021/12/19 03:33:53;;;;;;;12.63;9.90;;;2.90;99.10;;;;;;6251016;28;20475;-66
2021/12/19 03:36:56;;;;;;;12.60;10.07;;;2.90;99.10;;;;;;6250547;28;20467;-66
2021/12/19 03:40:09;;;;;;;11.77;10.57;;;2.90;99.20;;;;;;6250556;28;20795;-66
2021/12/19 03:43:15;;;;;;;10.93;9.57;;;2.90;99.10;;;;;;6251154;28;20479;-66
2021/12/19 03:46:19;;;;;;;10.57;9.40;;;2.90;99.10;;;;;;6253219;28;20491;-66
2021/12/19 03:49:22;;;;;;;10.07;9.03;;;2.80;99.00;;;;;;6252060;28;20475;-66
2021/12/19 03:52:25;;;;;;;10.83;9.70;;;2.80;99.10;;;;;;6250438;28;20478;-65
2021/12/19 03:55:30;;;;;;;14.83;10.63;;;2.80;99.30;;;;;;6241569;28;20537;-65
2021/12/19 03:58:33;;;;;;;11.40;10.20;;;2.80;99.30;;;;;;6275180;28;20434;-66
2021/12/19 04:01:36;;;;;;;11.70;10.37;;;2.70;99.40;;;;;;6252117;28;20497;-66
2021/12/19 04:04:40;;;;;;;13.47;9.80;;;2.80;99.50;;;;;;6251703;28;20494;-65
2021/12/19 04:07:43;;;;;;;10.07;9.07;;;2.80;99.40;;;;;;6250395;28;20439;-66
2021/12/19 04:10:49;;;;;;;11.03;8.70;;;2.70;99.30;;;;;;6251659;28;20458;-66
2021/12/19 04:13:53;;;;;;;13.03;10.33;;;2.70;99.40;;;;;;6251894;28;20467;-66
2021/12/19 04:16:56;;;;;;;11.80;10.60;;;2.70;99.40;;;;;;6251420;28;20466;-67
2021/12/19 04:19:59;;;;;;;13.10;10.53;;;2.60;99.50;;;;;;6250016;28;20552;-66
2021/12/19 04:23:03;;;;;;;12.40;9.63;;;2.60;99.50;;;;;;6250218;28;20462;-66
2021/12/19 04:26:08;;;;;;;16.83;12.57;;;2.60;99.70;;;;;;6249729;28;20798;-66
2021/12/19 04:29:11;;;;;;;11.53;9.90;;;2.60;99.70;;;;;;6249713;28;20467;-66
2021/12/19 04:32:17;;;;;;;15.03;9.70;;;2.60;99.70;;;;;;6250074;28;20471;-67
2021/12/19 04:35:20;;;;;;;12.20;10.10;;;2.60;99.70;;;;;;6249944;28;20570;-66
2021/12/19 04:39:01;;;;;;;17.23;10.13;;;2.60;99.80;;;;;;6249984;28;20478;-66
2021/12/19 04:59:15;;;;;;;14.97;11.87;;;2.50;99.70;;;;;;6255182;28;20458;-66
2021/12/19 05:02:30;;;;;;;13.50;10.43;;;2.50;99.80;;;;;;6255056;28;20475;-66
2021/12/19 05:15:37;;;;;;;13.33;10.10;;;2.40;99.90;;;;;;6245000;28;20471;-66
2021/12/19 05:18:42;;;;;;;14.00;10.23;;;2.40;99.80;;;;;;6254127;28;20983;-66
2021/12/19 05:21:45;;;;;;;11.70;10.40;;;2.50;99.80;;;;;;6253505;28;20477;-66
2021/12/19 05:25:00;;;;;;;12.70;11.37;;;2.50;99.70;;;;;;6253946;28;20490;-66
2021/12/19 05:28:03;;;;;;;11.80;10.70;;;2.40;99.50;;;;;;6253919;28;20468;-66
2021/12/19 05:31:08;;;;;;;12.77;10.30;;;2.40;99.50;;;;;;6253878;28;20474;-66
2021/12/19 05:34:12;;;;;;;10.77;9.17;;;2.40;99.50;;;;;;6253181;28;20855;-66
2021/12/19 05:45:11;;;;;;;8.50;7.07;;;2.20;99.70;;;;;;6278064;28;20482;-66
2021/12/19 05:47:37;;;;;;;8.83;6.60;;;2.20;99.70;;;;;;6277583;28;20470;-66
2021/12/19 05:50:40;;;;;;;8.63;6.63;;;2.20;99.80;;;;;;6277951;28;20466;-66
2021/12/19 05:53:43;;;;;;;11.17;7.43;;;2.10;99.80;;;;;;6277275;28;20470;-66
2021/12/19 05:56:48;;;;;;;7.07;6.30;;;2.20;99.90;;;;;;6277257;28;20474;-66
2021/12/19 05:59:52;;;;;;;10.33;7.43;;;2.10;99.90;;;;;;6277907;28;20470;-67
2021/12/19 06:02:56;;;;;;;12.90;7.73;;;2.20;99.90;;;;;;6262809;28;20818;-66
2021/12/19 06:05:59;;;;;;;11.13;7.90;;;2.20;99.90;;;;;;6277319;28;20505;-67
2021/12/19 06:09:03;;;;;;;9.53;8.40;;;2.30;99.80;;;;;;6277432;28;20477;-66
2021/12/19 06:12:07;;;;;;;10.23;8.47;;;2.30;99.80;;;;;;6274548;28;20535;-66
2021/12/19 06:15:11;;;;;;;12.73;9.03;;;2.30;99.70;;;;;;6277217;28;20478;-66
2021/12/19 06:18:16;;;;;;;9.40;8.50;;;2.20;99.60;;;;;;6277377;28;20493;-66
2021/12/19 06:21:19;;;;;;;10.60;8.50;;;2.20;99.70;;;;;;6277443;28;20485;-66
2021/12/19 06:24:22;;;;;;;10.10;8.27;;;2.10;99.80;;;;;;6277119;28;20481;-67
2021/12/19 06:27:26;;;;;;;9.33;8.43;;;2.20;99.80;;;;;;6276956;28;20469;-66
2021/12/19 06:30:29;;;;;;;12.43;9.50;;;2.10;99.80;;;;;;6277197;28;20470;-66
2021/12/19 06:33:34;;;;;;;13.37;9.10;;;2.20;99.90;;;;;;6277336;28;20485;-66
2021/12/19 06:36:40;;;;;;;13.23;10.00;;;2.20;99.90;;;;;;6276985;28;20541;-66
2021/12/19 06:39:43;;;;;;;11.47;9.07;;;2.10;99.90;;;;;;6276983;28;20478;-66
2021/12/19 06:42:47;;;;;;;12.07;10.60;;;2.10;99.90;;;;;;6276422;28;20474;-65
2021/12/19 06:45:52;;;;;;;11.57;9.70;;;2.10;99.90;;;;;;6277014;28;20548;-66
2021/12/19 06:48:57;;;;;;;11.33;9.63;;;2.10;99.90;;;;;;6277155;28;20474;-66
2021/12/19 06:52:00;;;;;;;11.87;9.20;;;2.10;99.90;;;;;;6276890;28;20470;-66
2021/12/19 06:55:04;;;;;;;9.90;8.87;;;2.10;99.90;;;;;;6277243;28;20474;-66
2021/12/19 06:58:07;;;;;;;14.13;9.87;;;2.20;99.90;;;;;;6276683;28;20466;-66
2021/12/19 07:01:10;;;;;;;12.23;10.30;;;2.30;99.90;;;;;;6275731;28;20485;-66
2021/12/19 07:04:15;;;;;;;11.33;9.87;;;2.30;99.90;;;;;;6275419;28;20814;-66
2021/12/19 07:07:19;;;;;;;10.23;8.60;;;2.40;99.80;;;;;;6262046;28;20946;-66
2021/12/19 07:10:22;;;;;;;9.50;8.60;;;2.30;99.70;;;;;;6276019;28;20857;-66
2021/12/19 07:13:25;;;;;;;11.33;9.17;;;2.30;99.70;;;;;;6275219;28;20791;-67
2021/12/19 07:16:28;;;;;;;10.83;9.20;;;2.40;99.70;;;;;;6276288;28;20466;-67
2021/12/19 07:19:33;;;;;;;9.63;8.63;;;2.40;99.70;;;;;;6276122;28;20465;-66
2021/12/19 07:22:36;;;;;;;12.90;8.17;;;2.40;99.70;;;;;;6275705;28;20504;-67
2021/12/19 07:25:39;;;;;;;7.77;6.63;;;2.40;99.50;;;;;;6276079;28;20457;-66
2021/12/19 07:28:44;;;;;;;9.10;7.47;;;2.50;99.50;;;;;;6275828;28;20487;-66
2021/12/19 07:31:47;;;;;;;8.13;6.90;;;2.50;99.40;;;;;;6276289;28;20453;-66
2021/12/19 07:34:52;;;;;;;8.80;7.47;;;2.50;99.30;;;;;;6275154;28;20477;-67
2021/12/19 07:37:56;;;;;;;9.57;7.53;;;2.60;99.20;;;;;;6275886;28;20477;-66
2021/12/19 07:40:59;;;;;;;10.00;7.93;;;2.60;99.10;;;;;;6275843;28;20466;-67
2021/12/19 07:44:03;;;;;;;9.53;8.63;;;2.70;99.10;;;;;;6275384;28;20469;-67
2021/12/19 07:47:07;;;;;;;8.73;7.70;;;2.70;99.10;;;;;;6275180;28;20836;-67
2021/12/19 07:50:13;;;;;;;11.03;8.40;;;2.70;99.00;;;;;;6275081;28;20474;-67
2021/12/19 07:53:16;;;;;;;10.00;7.20;;;2.60;99.00;;;;;;6275210;28;20478;-66
2021/12/19 07:56:20;;;;;;;9.63;8.50;;;2.70;99.00;;;;;;6275433;28;20462;-67
2021/12/19 07:59:23;;;;;;;9.47;8.47;;;2.70;99.00;;;;;;6275069;28;20549;-67
2021/12/19 08:02:27;;;;;;;10.40;8.07;;;2.80;99.00;;;;;;6274975;28;20547;-67
2021/12/19 08:05:32;;;;;;;11.40;8.83;;;2.90;99.00;;;;;;6274609;28;20485;-66
2021/12/19 08:08:35;;;;;;;13.00;9.57;;;3.00;99.30;;;;;;6264996;28;20466;-66
2021/12/19 08:11:42;;;;;;;10.17;9.17;;;3.00;98.80;;;;;;6274304;28;20478;-66
2021/12/19 08:14:46;;;;;;;9.30;8.40;;;3.10;98.70;;;;;;6274994;28;20489;-67
2021/12/19 08:17:50;;;;;;;8.97;8.13;;;3.20;98.50;;;;;;6275481;28;20532;-65
2021/12/19 08:20:55;;;;;;;8.07;7.27;;;3.20;98.40;;;;;;6275028;28;20782;-65
2021/12/19 08:24:09;;;;;;;10.37;8.87;;;3.30;98.40;;;;;;6274707;28;20482;-65
2021/12/19 08:27:12;;;;;;;8.23;7.47;;;3.40;98.20;;;;;;6278620;28;20504;-64
2021/12/19 08:30:16;;;;;;;9.13;7.97;;;3.40;98.20;;;;;;6279416;28;20470;-66
2021/12/19 08:33:20;;;;;;;9.97;8.13;;;3.40;98.20;;;;;;6279396;28;20762;-66
2021/12/19 08:36:25;;;;;;;9.50;8.47;;;3.50;98.20;;;;;;6280394;28;20470;-67
2021/12/19 08:39:28;;;;;;;9.17;7.70;;;3.60;98.20;;;;;;6279673;28;20481;-67
2021/12/19 08:42:34;;;;;;;8.00;7.10;;;3.70;98.10;;;;;;6280221;28;20470;-67
2021/12/19 08:45:37;;;;;;;8.57;7.40;;;3.70;98.00;;;;;;6280751;28;20474;-67
2021/12/19 08:48:44;;;;;;;7.67;6.83;;;3.80;97.90;;;;;;6279400;28;20791;-67
2021/12/19 08:51:49;;;;;;;11.23;8.10;;;4.00;97.80;;;;;;6279012;28;20981;-67
2021/12/19 08:54:53;;;;;;;8.60;7.60;;;4.00;97.60;;;;;;6279513;28;20481;-68
2021/12/19 08:57:56;;;;;;;9.40;7.07;;;4.10;97.40;;;;;;6280974;28;20473;-67
2021/12/19 09:01:01;;;;;;;9.40;8.07;;;4.10;97.20;;;;;;6281639;28;21049;-68
2021/12/19 09:04:05;;;;;;;9.80;8.87;;;4.10;97.20;;;;;;6281091;28;20532;-67
2021/12/19 09:07:12;;;;;;;12.23;10.00;;;4.20;97.30;;;;;;6280627;28;20478;-68
2021/12/19 09:10:19;;;;;;;13.23;9.17;;;4.30;97.30;;;;;;6280945;28;20463;-69
2021/12/19 09:13:25;;;;;;;11.53;9.27;;;4.50;97.10;;;;;;6275787;28;20473;-67
2021/12/19 09:16:29;;;;;;;10.30;9.40;;;4.60;97.00;;;;;;6280651;28;20474;-67
2021/12/19 09:19:46;;;;;;;12.83;10.20;;;4.70;96.90;;;;;;6278736;28;20470;-65
2021/12/19 09:22:51;;;;;;;12.83;9.50;;;4.80;96.70;;;;;;6279963;28;20452;-65
2021/12/19 09:25:55;;;;;;;10.87;9.17;;;4.90;96.50;;;;;;6278290;28;20945;-66
2021/12/19 09:28:58;;;;;;;12.73;9.77;;;5.00;96.20;;;;;;6279076;28;20466;-66
2021/12/19 09:32:02;;;;;;;10.37;8.87;;;5.10;95.90;;;;;;6278439;28;20466;-66
2021/12/19 09:35:06;;;;;;;11.80;9.23;;;5.20;95.60;;;;;;6278556;28;20477;-68
2021/12/19 09:38:10;;;;;;;10.20;9.17;;;5.30;95.30;;;;;;6277574;28;20793;-68
2021/12/19 09:41:17;;;;;;;11.10;8.93;;;5.30;94.60;;;;;;6278360;28;21003;-68
2021/12/19 09:44:21;;;;;;;9.23;8.33;;;5.30;94.10;;;;;;6278032;28;20474;-64
2021/12/19 09:47:24;;;;;;;12.30;9.13;;;5.40;94.10;;;;;;6279098;28;20482;-66
2021/12/19 09:50:31;;;;;;;12.80;11.50;;;5.40;94.10;;;;;;6278723;28;20474;-64
2021/12/19 09:53:37;;;;;;;16.07;13.03;;;5.40;93.90;;;;;;6275545;28;20966;-64
2021/12/19 09:56:42;;;;;;;14.40;12.03;;;5.40;93.70;;;;;;6263159;28;20803;-64
2021/12/19 09:59:45;;;;;;;15.63;12.17;;;5.50;94.30;;;;;;6260864;28;20466;-64
2021/12/19 10:02:50;;;;;;;16.30;13.17;;;5.60;94.50;;;;;;6264740;28;20473;-64
2021/12/19 10:06:18;;;;;;;14.63;13.07;;;5.60;94.10;;;;;;6264688;28;20489;-65
2021/12/19 10:09:23;;;;;;;14.10;12.07;;;5.70;93.90;;;;;;6263361;28;20477;-64
2021/12/19 10:12:49;;;;;;;13.50;11.53;;;5.80;93.80;;;;;;6265035;28;20472;-65
2021/12/19 10:15:52;;;;;;;15.20;11.53;;;5.90;93.60;;;;;;6265679;28;20470;-64
2021/12/19 10:18:59;;;;;;;15.10;12.40;;;5.90;93.30;;;;;;6267506;28;20982;-66
2021/12/19 10:22:04;;;;;;;14.33;11.67;;;5.90;93.10;;;;;;6278716;28;20977;-66
2021/12/19 10:25:21;;;;;;;13.53;12.07;;;6.10;93.30;;;;;;6278730;28;20953;-65
2021/12/19 10:28:26;;;;;;;16.53;12.07;;;6.20;92.80;;;;;;6279478;28;20485;-63
2021/12/19 10:31:29;;;;;;;15.27;13.67;;;6.20;92.70;;;;;;6280715;28;20474;-63
2021/12/19 10:34:33;;;;;;;14.73;12.90;;;6.30;92.60;;;;;;6280085;28;20872;-63
2021/12/19 10:37:48;;;;;;;16.37;14.30;;;6.40;92.80;;;;;;6281494;28;20426;-64
2021/12/19 10:40:55;;;;;;;19.47;14.97;;;6.50;92.70;;;;;;6282117;28;20804;-62
2021/12/19 10:44:06;;;;;;;17.60;15.43;;;6.60;92.70;;;;;;6281942;28;20466;-64
2021/12/19 10:47:21;;;;;;;17.17;15.30;;;6.70;92.70;;;;;;6276620;28;20533;-64
2021/12/19 10:50:42;;;;;;;15.60;13.47;;;6.80;92.40;;;;;;6283361;28;20458;-64
2021/12/19 10:53:49;;;;;;;15.53;13.50;;;6.90;92.60;;;;;;6283016;28;20478;-65
2021/12/19 10:57:07;;;;;;;14.43;12.93;;;7.00;92.20;;;;;;6277881;28;20469;-64
2021/12/19 11:00:23;;;;;;;14.20;12.53;;;7.10;91.80;;;;;;6276950;28;20470;-64
2021/12/19 11:03:49;;;;;;;15.07;13.03;;;7.20;91.50;;;;;;6276045;28;20470;-64
2021/12/19 11:06:54;;;;;;;14.50;12.60;;;7.40;91.50;;;;;;6273630;28;20528;-64
2021/12/19 11:09:57;;;;;;;13.80;12.27;;;7.50;91.30;;;;;;6269139;28;20803;-64
2021/12/19 11:13:10;;;;;;;16.07;12.53;;;7.70;91.30;;;;;;6256727;28;20480;-63
2021/12/19 11:16:13;;;;;;;13.40;12.00;;;8.00;90.50;;;;;;6275743;28;20488;-64
2021/12/19 11:19:16;;;;;;;17.07;12.53;;;9.10;88.20;;;;;;6275848;28;20470;-65
2021/12/19 11:22:39;;;;;;;13.37;12.10;;;10.50;81.30;;;;;;6275284;28;20596;-63
2021/12/19 11:25:44;;;;;;;13.00;10.43;;;10.70;76.80;;;;;;6275253;28;20470;-62
2021/12/19 11:28:49;;;;;;;12.43;10.23;;;10.40;76.40;;;;;;6275274;28;20470;-62
2021/12/19 11:31:57;;;;;;;12.07;10.87;;;10.60;78.20;;;;;;6268212;28;20794;-61
2021/12/19 11:35:05;;;;;;;13.57;11.20;;;13.90;70.20;;;;;;6258058;28;20528;-61
2021/12/19 11:38:12;;;;;;;11.50;9.73;;;18.90;55.80;;;;;;6255672;28;20590;-61
2021/12/19 11:41:18;;;;;;;12.20;11.00;;;23.20;42.50;;;;;;6250607;28;20478;-63
2021/12/19 11:44:34;;;;;;;12.17;10.97;;;26.30;33.80;;;;;;6250009;28;20224;-62
2021/12/19 11:47:43;;;;;;;11.63;10.63;;;28.60;29.20;;;;;;6250493;28;20220;-62
2021/12/19 11:50:48;;;;;;;12.73;11.47;;;30.40;26.80;;;;;;6250492;28;20671;-63
2021/12/19 11:53:52;;;;;;;11.70;10.70;;;31.80;24.50;;;;;;6249671;28;20683;-63
2021/12/19 11:57:08;;;;;;;11.90;10.90;;;32.80;23.00;;;;;;6250600;28;20668;-62
2021/12/19 12:00:28;;;;;;;10.57;9.60;;;32.00;21.90;;;;;;6249299;28;20244;-64
2021/12/19 12:03:43;;;;;;;12.33;11.20;;;28.60;23.40;;;;;;6249645;28;20239;-62
2021/12/19 12:06:55;;;;;;;11.57;10.57;;;26.20;25.90;;;;;;6249792;28;20228;-62
2021/12/19 12:09:59;;;;;;;11.33;10.33;;;27.20;25.70;;;;;;6262772;28;20226;-62
2021/12/19 12:13:05;;;;;;;13.43;10.43;;;29.40;24.80;;;;;;6293534;28;20227;-63
2021/12/19 12:16:43;;;;;;;12.63;10.90;;;31.30;22.80;;;;;;6274402;28;20238;-62
2021/12/19 12:19:49;;;;;;;10.80;9.83;;;30.80;22.00;;;;;;6241906;28;20230;-62
2021/12/19 12:22:59;;;;;;;17.10;11.30;;;28.10;23.40;;;;;;6270121;28;20563;-62
2021/12/19 12:26:26;;;;;;;13.10;11.80;;;25.50;25.60;;;;;;6274772;28;20231;-62
2021/12/19 12:29:29;;;;;;;14.20;12.33;;;25.60;26.70;;;;;;6274509;28;20261;-64
2021/12/19 12:32:34;;;;;;;13.07;12.07;;;27.90;25.40;;;;;;6274594;28;20562;-63
2021/12/19 12:35:40;;;;;;;14.03;12.63;;;29.80;23.90;;;;;;6274311;28;20675;-63
2021/12/19 12:38:46;;;;;;;14.77;11.97;;;31.40;22.80;;;;;;6274700;28;20230;-63
2021/12/19 12:41:58;;;;;;;12.70;11.53;;;32.80;22.40;;;;;;6274867;28;20235;-64
2021/12/19 12:45:03;;;;;;;18.90;13.57;;;34.00;20.90;;;;;;6274138;28;20242;-64
2021/12/19 12:48:07;;;;;;;12.88;11.55;;;34.90;20.20;;;;;;6274216;28;20239;-63
2021/12/19 12:51:19;;;;;;;13.25;12.05;;;35.40;19.70;;;;;;6274900;28;20248;-63
2021/12/19 12:54:29;;;;;;;14.07;12.80;;;35.80;19.30;;;;;;6274438;28;20253;-64
2021/12/19 12:57:35;;;;;;;14.23;12.88;;;36.20;19.00;;;;;;6274344;28;20245;-64
2021/12/19 13:00:38;;;;;;;13.13;12.02;;;36.30;18.40;;;;;;6274388;28;20238;-64
2021/12/19 13:03:56;;;;;;;12.55;11.40;;;35.80;18.10;;;;;;6273502;28;20249;-64
2021/12/19 13:07:02;;;;;;;13.63;12.33;;;33.10;19.20;;;;;;6273761;28;20241;-63
2021/12/19 13:10:06;;;;;;;14.07;12.57;;;29.40;21.40;;;;;;6281164;28;20226;-63
2021/12/19 13:13:10;;;;;;;13.40;12.10;;;26.30;24.10;;;;;;6296271;28;20227;-63
2021/12/19 13:16:13;;;;;;;13.70;12.40;;;26.90;24.60;;;;;;6278158;28;20297;-63
2021/12/19 13:20:02;;;;;;;13.13;11.80;;;28.80;23.50;;;;;;6278212;28;20223;-63
2021/12/19 13:23:06;;;;;;;14.90;12.70;;;30.50;22.30;;;;;;6278080;28;20228;-63
2021/12/19 13:26:14;;;;;;;14.80;13.00;;;29.90;22.00;;;;;;6278185;28;20302;-62
2021/12/19 13:29:19;;;;;;;13.00;11.73;;;27.70;23.10;;;;;;6264616;28;20293;-61
2021/12/19 13:32:26;;;;;;;16.97;12.30;;;26.00;25.20;;;;;;6277670;28;20222;-63
2021/12/19 13:35:31;;;;;;;14.97;12.03;;;26.90;25.20;;;;;;6278143;28;20231;-62
2021/12/19 13:38:36;;;;;;;18.37;12.07;;;28.20;24.30;;;;;;6277375;28;20223;-63
2021/12/19 13:41:39;;;;;;;15.73;13.20;;;29.40;23.30;;;;;;6276441;28;20238;-63
2021/12/19 13:44:43;;;;;;;14.67;11.57;;;30.30;22.90;;;;;;6278087;28;20248;-63
2021/12/19 13:47:48;;;;;;;15.20;12.50;;;30.70;22.30;;;;;;6278196;28;20234;-63
2021/12/19 13:50:56;;;;;;;14.27;12.97;;;30.70;22.10;;;;;;6277664;28;20747;-67
2021/12/19 13:54:03;;;;;;;17.27;13.20;;;31.00;22.10;;;;;;6278373;28;20239;-66
2021/12/19 13:57:21;;;;;;;16.57;13.77;;;29.60;22.50;;;;;;6279033;28;20295;-64
2021/12/19 14:00:30;;;;;;;15.63;14.10;;;29.20;23.00;;;;;;6278332;28;20528;-64
2021/12/19 14:04:04;;;;;;;22.27;14.57;;;28.90;23.00;;;;;;6277215;28;20320;-65
2021/12/19 14:07:13;;;;;;;17.70;13.53;;;28.40;23.50;;;;;;6277061;28;20349;-64
2021/12/19 14:10:30;;;;;;;11.40;10.20;;;28.50;23.20;;;;;;6287914;28;20219;-64
2021/12/19 14:13:36;;;;;;;12.83;9.80;;;28.30;21.50;;;;;;6292232;28;20242;-64
2021/12/19 14:16:44;;;;;;;12.37;9.60;;;28.10;22.20;;;;;;6276782;28;20677;-64
2021/12/19 14:19:50;;;;;;;10.80;9.00;;;27.40;22.60;;;;;;6277553;28;20628;-65
2021/12/19 14:22:54;;;;;;;15.50;9.83;;;26.20;23.30;;;;;;6277406;28;20227;-62
2021/12/19 14:25:58;;;;;;;12.50;9.73;;;24.90;24.60;;;;;;6277043;28;20235;-65
2021/12/19 14:29:01;;;;;;;10.13;7.97;;;23.50;25.30;;;;;;6273085;28;20224;-65
2021/12/19 14:32:10;;;;;;;11.00;8.10;;;22.00;26.50;;;;;;6262422;28;20228;-65
2021/12/19 14:35:16;;;;;;;9.00;8.00;;;20.60;27.60;;;;;;6272217;28;20583;-62
2021/12/19 14:38:22;;;;;;;11.73;8.83;;;19.30;28.70;;;;;;6252283;28;20232;-64
2021/12/19 14:41:29;;;;;;;11.63;8.30;;;17.90;30.30;;;;;;6249863;28;20931;-64
2021/12/19 14:44:32;;;;;;;14.90;9.60;;;17.00;32.30;;;;;;6249376;28;20481;-63
2021/12/19 14:47:42;;;;;;;13.60;10.97;;;16.20;33.40;;;;;;6250114;28;20475;-64
2021/12/19 14:50:50;;;;;;;13.73;11.60;;;15.40;35.20;;;;;;6249975;28;20471;-64
2021/12/19 14:54:00;;;;;;;10.87;9.57;;;14.60;36.80;;;;;;6249161;28;20475;-63
2021/12/19 14:57:06;;;;;;;15.17;11.43;;;14.00;38.90;;;;;;6250456;28;20482;-63
2021/12/19 15:00:11;;;;;;;15.17;10.43;;;13.50;39.70;;;;;;6250403;28;20463;-64
2021/12/19 15:03:16;;;;;;;10.50;9.27;;;12.90;41.30;;;;;;6249881;28;20954;-65
2021/12/19 15:06:22;;;;;;;11.70;10.17;;;12.50;42.10;;;;;;6250044;28;20479;-65
2021/12/19 15:09:29;;;;;;;11.47;10.33;;;12.30;43.30;;;;;;6255030;28;20786;-64
2021/12/19 15:12:34;;;;;;;12.73;10.90;;;12.00;43.90;;;;;;6299306;28;20475;-64
2021/12/19 15:15:38;;;;;;;13.73;11.27;;;11.60;44.60;;;;;;6276294;28;20486;-64
2021/12/19 15:18:44;;;;;;;19.40;13.10;;;11.40;45.90;;;;;;6276451;28;20466;-64
2021/12/19 15:21:47;;;;;;;16.13;12.13;;;11.30;46.90;;;;;;6276264;28;20474;-64
2021/12/19 15:24:50;;;;;;;14.17;11.60;;;11.10;47.40;;;;;;6276031;28;20788;-64
2021/12/19 15:27:55;;;;;;;14.43;12.17;;;11.00;48.50;;;;;;6274995;28;20832;-63
2021/12/19 15:30:59;;;;;;;15.63;12.33;;;10.80;49.20;;;;;;6275543;28;20478;-63
2021/12/19 15:34:04;;;;;;;16.47;12.60;;;10.60;49.80;;;;;;6275045;28;20482;-63
2021/12/19 15:37:07;;;;;;;20.00;12.30;;;10.50;50.50;;;;;;6266212;28;20547;-63
2021/12/19 15:40:11;;;;;;;12.20;9.23;;;10.40;51.40;;;;;;6275654;28;20507;-63
2021/12/19 15:43:16;;;;;;;11.70;10.50;;;9.90;54.10;;;;;;6274833;28;20482;-65
2021/12/19 15:46:20;;;;;;;10.00;8.70;;;9.60;55.70;;;;;;6274905;28;20470;-65
2021/12/19 15:49:24;;;;;;;11.07;8.37;;;9.50;57.20;;;;;;6275650;28;20462;-64
2021/12/19 15:52:28;;;;;;;12.27;10.63;;;9.30;58.30;;;;;;6275057;28;20488;-64
2021/12/19 15:55:31;;;;;;;11.43;10.23;;;9.10;59.50;;;;;;6275905;28;20486;-64
2021/12/19 15:58:35;;;;;;;13.60;11.00;;;9.00;60.70;;;;;;6275603;28;20473;-64
2021/12/19 16:01:39;;;;;;;13.17;10.80;;;8.90;62.30;;;;;;6274950;28;20919;-64
2021/12/19 16:04:44;;;;;;;11.57;10.23;;;8.70;64.00;;;;;;6275155;28;20482;-64
2021/12/19 16:07:48;;;;;;;16.97;11.70;;;8.50;65.90;;;;;;6275497;28;20450;-64
2021/12/19 16:10:51;;;;;;;14.33;11.47;;;8.50;67.00;;;;;;6289087;28;20511;-64
2021/12/19 16:13:55;;;;;;;13.83;11.20;;;8.40;67.50;;;;;;6287207;28;20454;-64
2021/12/19 16:17:00;;;;;;;13.93;12.10;;;8.30;68.80;;;;;;6275594;28;20564;-64
2021/12/19 16:20:04;;;;;;;14.23;12.73;;;8.20;69.60;;;;;;6275191;28;20786;-64
2021/12/19 16:23:07;;;;;;;14.47;12.60;;;8.20;70.60;;;;;;6274898;28;20503;-64
2021/12/19 16:26:10;;;;;;;13.30;11.57;;;8.00;71.50;;;;;;6274997;28;20489;-64
2021/12/19 16:29:15;;;;;;;13.33;12.07;;;8.00;71.90;;;;;;6274788;28;20469;-64
2021/12/19 16:32:18;;;;;;;14.20;12.57;;;8.00;72.50;;;;;;6274792;28;20800;-66
2021/12/19 16:35:23;;;;;;;14.93;12.47;;;8.00;73.50;;;;;;6274838;28;20485;-64
2021/12/19 16:38:26;;;;;;;16.60;13.70;;;7.90;73.50;;;;;;6274634;28;20480;-64
2021/12/19 16:41:43;;;;;;;13.70;12.47;;;7.80;74.20;;;;;;6274908;28;20478;-65
2021/12/19 16:44:47;;;;;;;19.00;13.80;;;7.80;74.70;;;;;;6274330;28;20486;-64
2021/12/19 16:47:50;;;;;;;14.97;13.23;;;7.80;75.30;;;;;;6278962;28;20466;-64
2021/12/19 16:50:54;;;;;;;17.70;13.80;;;7.70;75.50;;;;;;6279132;28;20808;-64